sensor_id;sensor_type;location;lat;lon;timestamp;temperature;humidity
23629;DHT22;11991;57.150;-2.134;2023-06-22T00:01:21;18.50;99.90
23629;DHT22;11991;57.150;-2.134;2023-06-22T00:03:49;18.50;99.90
23629;DHT22;11991;57.150;-2.134;2023-06-22T00:06:17;18.50;99.90
23629;DHT22;11991;57.150;-2.134;2023-06-22T00:08:44;18.40;99.90
23629;DHT22;11991;57.150;-2.134;2023-06-22T00:11:11;18.40;99.90
23629;DHT22;11991;57.150;-2.134;2023-06-22T00:13:39;18.40;99.90
23629;DHT22;11991;57.150;-2.134;2023-06-22T00:16:06;18.40;99.90
23629;DHT22;11991;57.150;-2.134;2023-06-22T00:18:33;18.30;99.90
23629;DHT22;11991;57.150;-2.134;2023-06-22T00:21:00;18.20;99.90
23629;DHT22;11991;57.150;-2.134;2023-06-22T00:23:28;18.20;99.90
23629;DHT22;11991;57.150;-2.134;2023-06-22T00:25:55;18.10;99.90
23629;DHT22;11991;57.150;-2.134;2023-06-22T00:28:22;18.10;99.90
23629;DHT22;11991;57.150;-2.134;2023-06-22T00:30:49;18.10;99.90
23629;DHT22;11991;57.150;-2.134;2023-06-22T00:33:18;18.00;99.90
23629;DHT22;11991;57.150;-2.134;2023-06-22T00:35:45;18.00;99.90
23629;DHT22;11991;57.150;-2.134;2023-06-22T00:38:12;17.90;99.90
23629;DHT22;11991;57.150;-2.134;2023-06-22T00:40:41;17.90;99.90
23629;DHT22;11991;57.150;-2.134;2023-06-22T00:43:08;17.80;99.90
23629;DHT22;11991;57.150;-2.134;2023-06-22T00:45:35;17.80;99.90
23629;DHT22;11991;57.150;-2.134;2023-06-22T00:48:03;17.70;99.90
23629;DHT22;11991;57.150;-2.134;2023-06-22T00:50:32;17.60;99.90
23629;DHT22;11991;57.150;-2.134;2023-06-22T00:53:07;17.60;99.90
23629;DHT22;11991;57.150;-2.134;2023-06-22T00:55:42;17.60;99.90
23629;DHT22;11991;57.150;-2.134;2023-06-22T00:58:19;17.50;99.90
23629;DHT22;11991;57.150;-2.134;2023-06-22T01:00:49;17.50;99.90
23629;DHT22;11991;57.150;-2.134;2023-06-22T01:03:16;17.50;99.90
23629;DHT22;11991;57.150;-2.134;2023-06-22T01:05:46;17.50;99.90
23629;DHT22;11991;57.150;-2.134;2023-06-22T01:08:58;17.40;99.90
23629;DHT22;11991;57.150;-2.134;2023-06-22T01:11:32;17.40;99.90
23629;DHT22;11991;57.150;-2.134;2023-06-22T01:14:12;17.40;99.90
23629;DHT22;11991;57.150;-2.134;2023-06-22T01:16:41;17.40;99.90
23629;DHT22;11991;57.150;-2.134;2023-06-22T01:22:00;17.50;99.90
23629;DHT22;11991;57.150;-2.134;2023-06-22T01:24:41;17.50;99.90
23629;DHT22;11991;57.150;-2.134;2023-06-22T01:27:36;17.50;99.90
23629;DHT22;11991;57.150;-2.134;2023-06-22T01:30:14;17.50;99.90
23629;DHT22;11991;57.150;-2.134;2023-06-22T01:32:42;17.50;99.90
23629;DHT22;11991;57.150;-2.134;2023-06-22T01:35:11;17.50;99.90
23629;DHT22;11991;57.150;-2.134;2023-06-22T01:37:39;17.40;99.90
23629;DHT22;11991;57.150;-2.134;2023-06-22T01:40:07;17.30;99.90
23629;DHT22;11991;57.150;-2.134;2023-06-22T01:42:36;17.30;99.90
23629;DHT22;11991;57.150;-2.134;2023-06-22T01:45:07;17.30;99.90
23629;DHT22;11991;57.150;-2.134;2023-06-22T01:47:37;17.30;99.90
23629;DHT22;11991;57.150;-2.134;2023-06-22T01:50:05;17.20;99.90
23629;DHT22;11991;57.150;-2.134;2023-06-22T01:52:32;17.10;99.90
23629;DHT22;11991;57.150;-2.134;2023-06-22T01:55:01;17.10;99.90
23629;DHT22;11991;57.150;-2.134;2023-06-22T01:57:28;17.00;99.90
23629;DHT22;11991;57.150;-2.134;2023-06-22T02:00:04;17.00;99.90
23629;DHT22;11991;57.150;-2.134;2023-06-22T02:03:03;16.90;99.90
23629;DHT22;11991;57.150;-2.134;2023-06-22T02:05:36;16.90;99.90
23629;DHT22;11991;57.150;-2.134;2023-06-22T02:08:27;16.90;99.90
23629;DHT22;11991;57.150;-2.134;2023-06-22T02:10:59;16.90;99.90
23629;DHT22;11991;57.150;-2.134;2023-06-22T02:13:28;16.80;99.90
23629;DHT22;11991;57.150;-2.134;2023-06-22T02:15:56;16.80;99.90
23629;DHT22;11991;57.150;-2.134;2023-06-22T02:18:23;16.90;99.90
23629;DHT22;11991;57.150;-2.134;2023-06-22T02:20:52;16.90;99.90
23629;DHT22;11991;57.150;-2.134;2023-06-22T02:23:19;16.90;99.90
23629;DHT22;11991;57.150;-2.134;2023-06-22T02:25:46;16.90;99.90
23629;DHT22;11991;57.150;-2.134;2023-06-22T02:28:13;16.90;99.90
23629;DHT22;11991;57.150;-2.134;2023-06-22T02:30:41;16.90;99.90
23629;DHT22;11991;57.150;-2.134;2023-06-22T02:33:08;16.80;99.90
23629;DHT22;11991;57.150;-2.134;2023-06-22T02:35:35;16.90;99.90
23629;DHT22;11991;57.150;-2.134;2023-06-22T02:38:04;16.90;99.90
23629;DHT22;11991;57.150;-2.134;2023-06-22T02:40:31;16.90;99.90
23629;DHT22;11991;57.150;-2.134;2023-06-22T02:42:59;16.90;99.90
23629;DHT22;11991;57.150;-2.134;2023-06-22T02:45:29;17.00;99.90
23629;DHT22;11991;57.150;-2.134;2023-06-22T02:47:57;17.00;99.90
23629;DHT22;11991;57.150;-2.134;2023-06-22T02:50:24;17.10;99.90
23629;DHT22;11991;57.150;-2.134;2023-06-22T02:52:53;17.10;99.90
23629;DHT22;11991;57.150;-2.134;2023-06-22T02:55:20;17.20;99.90
23629;DHT22;11991;57.150;-2.134;2023-06-22T02:57:53;17.20;99.90
23629;DHT22;11991;57.150;-2.134;2023-06-22T03:00:21;17.20;99.90
23629;DHT22;11991;57.150;-2.134;2023-06-22T03:02:49;17.20;99.90
23629;DHT22;11991;57.150;-2.134;2023-06-22T03:05:17;17.20;99.90
23629;DHT22;11991;57.150;-2.134;2023-06-22T03:07:46;17.20;99.90
23629;DHT22;11991;57.150;-2.134;2023-06-22T03:10:15;17.10;99.90
23629;DHT22;11991;57.150;-2.134;2023-06-22T03:12:43;17.10;99.90
23629;DHT22;11991;57.150;-2.134;2023-06-22T03:15:12;17.00;99.90
23629;DHT22;11991;57.150;-2.134;2023-06-22T03:17:40;17.00;99.90
23629;DHT22;11991;57.150;-2.134;2023-06-22T03:20:09;16.90;99.90
23629;DHT22;11991;57.150;-2.134;2023-06-22T03:22:38;16.90;99.90
23629;DHT22;11991;57.150;-2.134;2023-06-22T03:25:07;16.80;99.90
23629;DHT22;11991;57.150;-2.134;2023-06-22T03:27:42;16.80;99.90
23629;DHT22;11991;57.150;-2.134;2023-06-22T03:30:11;16.70;99.90
23629;DHT22;11991;57.150;-2.134;2023-06-22T03:32:39;16.60;99.90
23629;DHT22;11991;57.150;-2.134;2023-06-22T03:35:07;16.60;99.90
23629;DHT22;11991;57.150;-2.134;2023-06-22T03:37:36;16.60;99.90
23629;DHT22;11991;57.150;-2.134;2023-06-22T03:40:06;16.50;99.90
23629;DHT22;11991;57.150;-2.134;2023-06-22T03:42:34;16.60;99.90
23629;DHT22;11991;57.150;-2.134;2023-06-22T03:45:05;16.50;99.90
23629;DHT22;11991;57.150;-2.134;2023-06-22T03:47:32;16.50;99.90
23629;DHT22;11991;57.150;-2.134;2023-06-22T03:50:00;16.50;99.90
23629;DHT22;11991;57.150;-2.134;2023-06-22T03:52:27;16.50;99.90
23629;DHT22;11991;57.150;-2.134;2023-06-22T03:54:54;16.40;99.90
23629;DHT22;11991;57.150;-2.134;2023-06-22T03:57:21;16.40;99.90
23629;DHT22;11991;57.150;-2.134;2023-06-22T03:59:49;16.40;99.90
23629;DHT22;11991;57.150;-2.134;2023-06-22T04:02:16;16.30;99.90
23629;DHT22;11991;57.150;-2.134;2023-06-22T04:04:43;16.30;99.90
23629;DHT22;11991;57.150;-2.134;2023-06-22T04:07:10;16.30;99.90
23629;DHT22;11991;57.150;-2.134;2023-06-22T04:09:38;16.30;99.90
23629;DHT22;11991;57.150;-2.134;2023-06-22T04:12:05;16.40;99.90
23629;DHT22;11991;57.150;-2.134;2023-06-22T04:14:32;16.40;99.90
23629;DHT22;11991;57.150;-2.134;2023-06-22T04:16:59;16.40;99.90
23629;DHT22;11991;57.150;-2.134;2023-06-22T04:19:27;16.40;99.90
23629;DHT22;11991;57.150;-2.134;2023-06-22T04:21:54;16.50;99.90
23629;DHT22;11991;57.150;-2.134;2023-06-22T04:24:21;16.50;99.90
23629;DHT22;11991;57.150;-2.134;2023-06-22T04:26:48;16.50;99.90
23629;DHT22;11991;57.150;-2.134;2023-06-22T04:29:16;16.60;99.90
23629;DHT22;11991;57.150;-2.134;2023-06-22T04:31:43;16.60;99.90
23629;DHT22;11991;57.150;-2.134;2023-06-22T04:34:10;16.60;99.90
23629;DHT22;11991;57.150;-2.134;2023-06-22T04:36:40;16.70;99.90
23629;DHT22;11991;57.150;-2.134;2023-06-22T04:39:11;16.70;99.90
23629;DHT22;11991;57.150;-2.134;2023-06-22T04:41:40;16.80;99.90
23629;DHT22;11991;57.150;-2.134;2023-06-22T04:44:13;16.80;99.90
23629;DHT22;11991;57.150;-2.134;2023-06-22T04:46:40;16.70;99.90
23629;DHT22;11991;57.150;-2.134;2023-06-22T04:49:08;16.70;99.90
23629;DHT22;11991;57.150;-2.134;2023-06-22T04:51:42;16.50;99.90
23629;DHT22;11991;57.150;-2.134;2023-06-22T04:54:09;16.40;99.90
23629;DHT22;11991;57.150;-2.134;2023-06-22T04:56:37;16.20;99.90
23629;DHT22;11991;57.150;-2.134;2023-06-22T04:59:04;16.10;99.90
23629;DHT22;11991;57.150;-2.134;2023-06-22T05:01:31;16.00;99.90
23629;DHT22;11991;57.150;-2.134;2023-06-22T05:03:58;16.00;99.90
23629;DHT22;11991;57.150;-2.134;2023-06-22T05:06:28;16.00;99.90
23629;DHT22;11991;57.150;-2.134;2023-06-22T05:08:56;16.10;99.90
23629;DHT22;11991;57.150;-2.134;2023-06-22T05:11:27;16.10;99.90
23629;DHT22;11991;57.150;-2.134;2023-06-22T05:13:55;16.00;99.90
23629;DHT22;11991;57.150;-2.134;2023-06-22T05:16:23;16.10;99.90
23629;DHT22;11991;57.150;-2.134;2023-06-22T05:18:52;16.10;99.90
23629;DHT22;11991;57.150;-2.134;2023-06-22T05:21:25;16.10;99.90
23629;DHT22;11991;57.150;-2.134;2023-06-22T05:23:53;16.10;99.90
23629;DHT22;11991;57.150;-2.134;2023-06-22T05:26:21;16.10;99.90
23629;DHT22;11991;57.150;-2.134;2023-06-22T05:28:49;16.10;99.90
23629;DHT22;11991;57.150;-2.134;2023-06-22T05:31:17;16.10;99.90
23629;DHT22;11991;57.150;-2.134;2023-06-22T05:33:47;16.10;99.90
23629;DHT22;11991;57.150;-2.134;2023-06-22T05:36:15;16.10;99.90
23629;DHT22;11991;57.150;-2.134;2023-06-22T05:38:42;16.00;99.90
23629;DHT22;11991;57.150;-2.134;2023-06-22T05:41:09;16.00;99.90
23629;DHT22;11991;57.150;-2.134;2023-06-22T05:43:37;16.00;99.90
23629;DHT22;11991;57.150;-2.134;2023-06-22T05:46:04;16.00;99.90
23629;DHT22;11991;57.150;-2.134;2023-06-22T05:48:32;15.90;99.90
23629;DHT22;11991;57.150;-2.134;2023-06-22T05:50:59;15.80;99.90
23629;DHT22;11991;57.150;-2.134;2023-06-22T05:53:26;15.80;99.90
23629;DHT22;11991;57.150;-2.134;2023-06-22T05:55:54;15.80;99.90
23629;DHT22;11991;57.150;-2.134;2023-06-22T05:58:21;15.70;99.90
23629;DHT22;11991;57.150;-2.134;2023-06-22T06:00:48;15.70;99.90
23629;DHT22;11991;57.150;-2.134;2023-06-22T06:03:16;15.60;99.90
23629;DHT22;11991;57.150;-2.134;2023-06-22T06:05:44;15.60;99.90
23629;DHT22;11991;57.150;-2.134;2023-06-22T06:08:12;15.70;99.90
23629;DHT22;11991;57.150;-2.134;2023-06-22T06:10:39;15.70;99.90
23629;DHT22;11991;57.150;-2.134;2023-06-22T06:13:06;15.70;99.90
23629;DHT22;11991;57.150;-2.134;2023-06-22T06:15:34;15.80;99.90
23629;DHT22;11991;57.150;-2.134;2023-06-22T06:18:02;15.80;99.90
23629;DHT22;11991;57.150;-2.134;2023-06-22T06:20:32;15.90;99.90
23629;DHT22;11991;57.150;-2.134;2023-06-22T06:23:00;15.90;99.90
23629;DHT22;11991;57.150;-2.134;2023-06-22T06:25:27;15.90;99.90
23629;DHT22;11991;57.150;-2.134;2023-06-22T06:27:54;15.90;99.90
23629;DHT22;11991;57.150;-2.134;2023-06-22T06:30:22;15.90;99.90
23629;DHT22;11991;57.150;-2.134;2023-06-22T06:32:50;16.00;99.90
23629;DHT22;11991;57.150;-2.134;2023-06-22T06:35:17;16.00;99.90
23629;DHT22;11991;57.150;-2.134;2023-06-22T06:37:47;16.10;99.90
23629;DHT22;11991;57.150;-2.134;2023-06-22T06:40:15;16.10;99.90
23629;DHT22;11991;57.150;-2.134;2023-06-22T06:42:44;16.20;99.90
23629;DHT22;11991;57.150;-2.134;2023-06-22T06:45:14;16.20;99.90
23629;DHT22;11991;57.150;-2.134;2023-06-22T06:47:42;16.30;99.90
23629;DHT22;11991;57.150;-2.134;2023-06-22T06:50:10;16.40;99.90
23629;DHT22;11991;57.150;-2.134;2023-06-22T06:52:37;16.40;99.90
23629;DHT22;11991;57.150;-2.134;2023-06-22T06:55:05;16.50;99.90
23629;DHT22;11991;57.150;-2.134;2023-06-22T06:57:39;16.50;99.90
23629;DHT22;11991;57.150;-2.134;2023-06-22T07:00:09;16.50;99.90
23629;DHT22;11991;57.150;-2.134;2023-06-22T07:02:45;16.50;99.90
23629;DHT22;11991;57.150;-2.134;2023-06-22T07:05:14;16.60;99.90
23629;DHT22;11991;57.150;-2.134;2023-06-22T07:07:41;16.50;99.90
23629;DHT22;11991;57.150;-2.134;2023-06-22T07:10:10;16.50;99.90
23629;DHT22;11991;57.150;-2.134;2023-06-22T07:12:38;16.50;99.90
23629;DHT22;11991;57.150;-2.134;2023-06-22T07:15:07;16.50;99.90
23629;DHT22;11991;57.150;-2.134;2023-06-22T07:17:36;16.50;99.90
23629;DHT22;11991;57.150;-2.134;2023-06-22T07:20:04;16.50;99.90
23629;DHT22;11991;57.150;-2.134;2023-06-22T07:22:42;16.50;99.90
23629;DHT22;11991;57.150;-2.134;2023-06-22T07:25:10;16.60;99.90
23629;DHT22;11991;57.150;-2.134;2023-06-22T07:27:38;16.60;99.90
23629;DHT22;11991;57.150;-2.134;2023-06-22T07:30:07;16.60;99.90
23629;DHT22;11991;57.150;-2.134;2023-06-22T07:32:35;16.60;99.90
23629;DHT22;11991;57.150;-2.134;2023-06-22T07:35:03;16.60;99.90
23629;DHT22;11991;57.150;-2.134;2023-06-22T07:37:31;16.60;99.90
23629;DHT22;11991;57.150;-2.134;2023-06-22T07:40:00;16.70;99.90
23629;DHT22;11991;57.150;-2.134;2023-06-22T07:42:27;16.70;99.90
23629;DHT22;11991;57.150;-2.134;2023-06-22T07:44:57;16.70;99.90
23629;DHT22;11991;57.150;-2.134;2023-06-22T07:47:24;16.80;99.90
23629;DHT22;11991;57.150;-2.134;2023-06-22T07:49:57;16.80;99.90
23629;DHT22;11991;57.150;-2.134;2023-06-22T07:52:25;16.80;99.90
23629;DHT22;11991;57.150;-2.134;2023-06-22T07:54:55;16.90;99.90
23629;DHT22;11991;57.150;-2.134;2023-06-22T07:57:22;16.90;99.90
23629;DHT22;11991;57.150;-2.134;2023-06-22T07:59:49;16.90;99.90
23629;DHT22;11991;57.150;-2.134;2023-06-22T08:02:17;16.90;99.90
23629;DHT22;11991;57.150;-2.134;2023-06-22T08:04:45;17.00;99.90
23629;DHT22;11991;57.150;-2.134;2023-06-22T08:07:12;17.00;99.90
23629;DHT22;11991;57.150;-2.134;2023-06-22T08:09:46;17.00;99.90
23629;DHT22;11991;57.150;-2.134;2023-06-22T08:12:14;17.10;99.90
23629;DHT22;11991;57.150;-2.134;2023-06-22T08:14:42;17.10;99.90
23629;DHT22;11991;57.150;-2.134;2023-06-22T08:17:10;17.10;99.90
23629;DHT22;11991;57.150;-2.134;2023-06-22T08:19:39;17.10;99.90
23629;DHT22;11991;57.150;-2.134;2023-06-22T08:22:06;17.20;99.90
23629;DHT22;11991;57.150;-2.134;2023-06-22T08:24:33;17.20;99.90
23629;DHT22;11991;57.150;-2.134;2023-06-22T08:27:01;17.30;99.90
23629;DHT22;11991;57.150;-2.134;2023-06-22T08:29:28;17.40;99.90
23629;DHT22;11991;57.150;-2.134;2023-06-22T08:31:56;17.50;99.90
23629;DHT22;11991;57.150;-2.134;2023-06-22T08:34:23;17.50;99.90
23629;DHT22;11991;57.150;-2.134;2023-06-22T08:36:54;17.50;99.90
23629;DHT22;11991;57.150;-2.134;2023-06-22T08:39:21;17.50;99.90
23629;DHT22;11991;57.150;-2.134;2023-06-22T08:41:48;17.50;99.90
23629;DHT22;11991;57.150;-2.134;2023-06-22T08:44:18;17.60;99.90
23629;DHT22;11991;57.150;-2.134;2023-06-22T08:46:46;17.60;99.90
23629;DHT22;11991;57.150;-2.134;2023-06-22T08:49:17;17.60;99.90
23629;DHT22;11991;57.150;-2.134;2023-06-22T08:51:44;17.60;99.90
23629;DHT22;11991;57.150;-2.134;2023-06-22T08:54:12;17.70;99.90
23629;DHT22;11991;57.150;-2.134;2023-06-22T08:56:40;17.80;99.90
23629;DHT22;11991;57.150;-2.134;2023-06-22T08:59:07;17.80;99.90
23629;DHT22;11991;57.150;-2.134;2023-06-22T09:01:35;17.80;99.90
23629;DHT22;11991;57.150;-2.134;2023-06-22T09:04:02;17.80;99.90
23629;DHT22;11991;57.150;-2.134;2023-06-22T09:06:31;17.80;99.90
23629;DHT22;11991;57.150;-2.134;2023-06-22T09:09:00;17.80;99.90
23629;DHT22;11991;57.150;-2.134;2023-06-22T09:11:27;17.80;99.90
23629;DHT22;11991;57.150;-2.134;2023-06-22T09:13:55;17.90;99.90
23629;DHT22;11991;57.150;-2.134;2023-06-22T09:16:22;17.90;99.90
23629;DHT22;11991;57.150;-2.134;2023-06-22T09:18:50;17.90;99.90
23629;DHT22;11991;57.150;-2.134;2023-06-22T09:21:18;17.90;99.90
23629;DHT22;11991;57.150;-2.134;2023-06-22T09:23:47;18.00;99.90
23629;DHT22;11991;57.150;-2.134;2023-06-22T09:26:18;18.10;99.90
23629;DHT22;11991;57.150;-2.134;2023-06-22T09:28:46;18.10;99.90
23629;DHT22;11991;57.150;-2.134;2023-06-22T09:31:47;18.20;99.90
23629;DHT22;11991;57.150;-2.134;2023-06-22T09:34:15;18.30;99.90
23629;DHT22;11991;57.150;-2.134;2023-06-22T09:36:42;18.30;99.90
23629;DHT22;11991;57.150;-2.134;2023-06-22T09:39:10;18.30;99.90
23629;DHT22;11991;57.150;-2.134;2023-06-22T09:41:37;18.40;99.90
23629;DHT22;11991;57.150;-2.134;2023-06-22T09:44:04;18.40;99.90
23629;DHT22;11991;57.150;-2.134;2023-06-22T09:46:32;18.30;99.90
23629;DHT22;11991;57.150;-2.134;2023-06-22T09:48:59;18.30;99.90
23629;DHT22;11991;57.150;-2.134;2023-06-22T09:51:27;18.30;99.90
23629;DHT22;11991;57.150;-2.134;2023-06-22T09:53:54;18.30;99.90
23629;DHT22;11991;57.150;-2.134;2023-06-22T09:56:22;18.40;99.90
23629;DHT22;11991;57.150;-2.134;2023-06-22T09:58:52;18.50;99.90
23629;DHT22;11991;57.150;-2.134;2023-06-22T10:01:45;18.50;99.90
23629;DHT22;11991;57.150;-2.134;2023-06-22T10:04:12;18.60;99.90
23629;DHT22;11991;57.150;-2.134;2023-06-22T10:06:40;18.70;99.90
23629;DHT22;11991;57.150;-2.134;2023-06-22T10:09:08;18.90;99.90
23629;DHT22;11991;57.150;-2.134;2023-06-22T10:11:36;19.00;99.90
23629;DHT22;11991;57.150;-2.134;2023-06-22T10:14:04;19.20;99.90
23629;DHT22;11991;57.150;-2.134;2023-06-22T10:16:32;19.40;99.90
23629;DHT22;11991;57.150;-2.134;2023-06-22T10:18:59;19.50;99.90
23629;DHT22;11991;57.150;-2.134;2023-06-22T10:21:27;19.60;99.90
23629;DHT22;11991;57.150;-2.134;2023-06-22T10:23:55;19.60;99.90
23629;DHT22;11991;57.150;-2.134;2023-06-22T10:26:23;19.60;99.90
23629;DHT22;11991;57.150;-2.134;2023-06-22T10:28:50;19.60;99.90
23629;DHT22;11991;57.150;-2.134;2023-06-22T10:31:33;19.60;99.90
23629;DHT22;11991;57.150;-2.134;2023-06-22T10:34:00;19.50;99.90
23629;DHT22;11991;57.150;-2.134;2023-06-22T10:36:28;19.50;99.90
23629;DHT22;11991;57.150;-2.134;2023-06-22T10:38:55;19.40;99.90
23629;DHT22;11991;57.150;-2.134;2023-06-22T10:41:22;19.50;99.90
23629;DHT22;11991;57.150;-2.134;2023-06-22T10:43:50;19.50;99.90
23629;DHT22;11991;57.150;-2.134;2023-06-22T10:46:17;19.50;99.90
23629;DHT22;11991;57.150;-2.134;2023-06-22T10:48:44;19.60;99.90
23629;DHT22;11991;57.150;-2.134;2023-06-22T10:51:11;19.60;99.90
23629;DHT22;11991;57.150;-2.134;2023-06-22T10:53:38;19.60;99.90
23629;DHT22;11991;57.150;-2.134;2023-06-22T10:56:06;19.70;99.90
23629;DHT22;11991;57.150;-2.134;2023-06-22T10:58:33;19.70;99.90
23629;DHT22;11991;57.150;-2.134;2023-06-22T11:01:00;19.70;99.90
23629;DHT22;11991;57.150;-2.134;2023-06-22T11:03:27;19.80;99.90
23629;DHT22;11991;57.150;-2.134;2023-06-22T11:05:55;19.80;99.90
23629;DHT22;11991;57.150;-2.134;2023-06-22T11:08:22;19.90;99.90
23629;DHT22;11991;57.150;-2.134;2023-06-22T11:10:51;19.90;99.90
23629;DHT22;11991;57.150;-2.134;2023-06-22T11:13:19;20.00;99.90
23629;DHT22;11991;57.150;-2.134;2023-06-22T11:15:46;20.00;99.90
23629;DHT22;11991;57.150;-2.134;2023-06-22T11:18:13;20.00;99.90
23629;DHT22;11991;57.150;-2.134;2023-06-22T11:20:42;20.00;99.90
23629;DHT22;11991;57.150;-2.134;2023-06-22T11:23:09;20.00;99.90
23629;DHT22;11991;57.150;-2.134;2023-06-22T11:25:38;20.00;99.90
23629;DHT22;11991;57.150;-2.134;2023-06-22T11:28:05;20.10;99.90
23629;DHT22;11991;57.150;-2.134;2023-06-22T11:30:33;20.20;99.90
23629;DHT22;11991;57.150;-2.134;2023-06-22T11:33:01;20.20;99.90
23629;DHT22;11991;57.150;-2.134;2023-06-22T11:35:28;20.30;99.90
23629;DHT22;11991;57.150;-2.134;2023-06-22T11:37:55;20.40;99.90
23629;DHT22;11991;57.150;-2.134;2023-06-22T11:40:23;20.50;99.90
23629;DHT22;11991;57.150;-2.134;2023-06-22T11:42:50;20.60;99.90
23629;DHT22;11991;57.150;-2.134;2023-06-22T11:45:17;20.60;99.90
23629;DHT22;11991;57.150;-2.134;2023-06-22T11:47:46;20.60;99.90
23629;DHT22;11991;57.150;-2.134;2023-06-22T11:50:13;20.70;99.90
23629;DHT22;11991;57.150;-2.134;2023-06-22T11:52:41;20.60;99.90
23629;DHT22;11991;57.150;-2.134;2023-06-22T11:55:08;20.60;99.90
23629;DHT22;11991;57.150;-2.134;2023-06-22T11:57:37;20.60;99.90
23629;DHT22;11991;57.150;-2.134;2023-06-22T12:00:05;20.60;99.90
23629;DHT22;11991;57.150;-2.134;2023-06-22T12:02:45;20.60;99.90
23629;DHT22;11991;57.150;-2.134;2023-06-22T12:05:12;20.60;99.90
23629;DHT22;11991;57.150;-2.134;2023-06-22T12:07:39;20.60;99.90
23629;DHT22;11991;57.150;-2.134;2023-06-22T12:10:07;20.60;99.90
23629;DHT22;11991;57.150;-2.134;2023-06-22T12:12:34;20.60;99.90
23629;DHT22;11991;57.150;-2.134;2023-06-22T12:15:02;20.70;99.90
23629;DHT22;11991;57.150;-2.134;2023-06-22T12:17:31;20.70;99.90
23629;DHT22;11991;57.150;-2.134;2023-06-22T12:19:58;20.70;99.90
23629;DHT22;11991;57.150;-2.134;2023-06-22T12:22:26;20.80;99.90
23629;DHT22;11991;57.150;-2.134;2023-06-22T12:24:54;20.80;99.90
23629;DHT22;11991;57.150;-2.134;2023-06-22T12:27:21;20.90;99.90
23629;DHT22;11991;57.150;-2.134;2023-06-22T12:29:49;21.00;99.90
23629;DHT22;11991;57.150;-2.134;2023-06-22T12:32:16;21.00;99.90
23629;DHT22;11991;57.150;-2.134;2023-06-22T12:34:44;21.00;99.90
23629;DHT22;11991;57.150;-2.134;2023-06-22T12:37:11;21.00;99.90
23629;DHT22;11991;57.150;-2.134;2023-06-22T12:39:40;21.00;99.90
23629;DHT22;11991;57.150;-2.134;2023-06-22T12:42:08;20.90;99.90
23629;DHT22;11991;57.150;-2.134;2023-06-22T12:44:37;20.80;99.90
23629;DHT22;11991;57.150;-2.134;2023-06-22T12:47:05;20.90;99.90
23629;DHT22;11991;57.150;-2.134;2023-06-22T12:49:33;20.90;99.90
23629;DHT22;11991;57.150;-2.134;2023-06-22T12:52:00;20.90;99.90
23629;DHT22;11991;57.150;-2.134;2023-06-22T12:54:27;20.90;99.90
23629;DHT22;11991;57.150;-2.134;2023-06-22T12:57:08;20.90;99.90
23629;DHT22;11991;57.150;-2.134;2023-06-22T12:59:36;20.90;99.90
23629;DHT22;11991;57.150;-2.134;2023-06-22T13:02:03;20.90;99.90
23629;DHT22;11991;57.150;-2.134;2023-06-22T13:04:30;20.90;99.90
23629;DHT22;11991;57.150;-2.134;2023-06-22T13:06:58;20.80;99.90
23629;DHT22;11991;57.150;-2.134;2023-06-22T13:09:48;20.70;99.90
23629;DHT22;11991;57.150;-2.134;2023-06-22T13:12:22;20.60;99.90
23629;DHT22;11991;57.150;-2.134;2023-06-22T13:14:51;20.50;99.90
23629;DHT22;11991;57.150;-2.134;2023-06-22T13:17:18;20.40;99.90
23629;DHT22;11991;57.150;-2.134;2023-06-22T13:19:46;20.30;99.90
23629;DHT22;11991;57.150;-2.134;2023-06-22T13:22:32;20.20;99.90
23629;DHT22;11991;57.150;-2.134;2023-06-22T13:25:00;20.00;99.90
23629;DHT22;11991;57.150;-2.134;2023-06-22T13:27:27;19.90;99.90
23629;DHT22;11991;57.150;-2.134;2023-06-22T13:29:55;19.90;99.90
23629;DHT22;11991;57.150;-2.134;2023-06-22T13:32:22;19.80;99.90
23629;DHT22;11991;57.150;-2.134;2023-06-22T13:34:50;19.80;99.90
23629;DHT22;11991;57.150;-2.134;2023-06-22T13:37:18;19.70;99.90
23629;DHT22;11991;57.150;-2.134;2023-06-22T13:39:45;19.70;99.90
23629;DHT22;11991;57.150;-2.134;2023-06-22T13:42:13;19.60;99.90
23629;DHT22;11991;57.150;-2.134;2023-06-22T13:44:40;19.70;99.90
23629;DHT22;11991;57.150;-2.134;2023-06-22T13:47:08;19.80;99.90
23629;DHT22;11991;57.150;-2.134;2023-06-22T13:49:35;20.00;99.90
23629;DHT22;11991;57.150;-2.134;2023-06-22T13:52:02;20.10;99.90
23629;DHT22;11991;57.150;-2.134;2023-06-22T13:54:31;20.10;99.90
23629;DHT22;11991;57.150;-2.134;2023-06-22T13:57:02;20.10;99.90
23629;DHT22;11991;57.150;-2.134;2023-06-22T13:59:29;20.10;99.90
23629;DHT22;11991;57.150;-2.134;2023-06-22T14:01:57;20.00;99.90
23629;DHT22;11991;57.150;-2.134;2023-06-22T14:04:24;20.00;99.90
23629;DHT22;11991;57.150;-2.134;2023-06-22T14:06:52;20.00;99.90
23629;DHT22;11991;57.150;-2.134;2023-06-22T14:09:23;20.00;99.90
23629;DHT22;11991;57.150;-2.134;2023-06-22T14:11:50;20.10;99.90
23629;DHT22;11991;57.150;-2.134;2023-06-22T14:14:17;20.40;99.90
23629;DHT22;11991;57.150;-2.134;2023-06-22T14:16:45;20.60;99.90
23629;DHT22;11991;57.150;-2.134;2023-06-22T14:19:12;20.80;99.90
23629;DHT22;11991;57.150;-2.134;2023-06-22T14:21:39;21.00;99.90
23629;DHT22;11991;57.150;-2.134;2023-06-22T14:24:06;21.00;99.90
23629;DHT22;11991;57.150;-2.134;2023-06-22T14:26:34;21.10;99.90
23629;DHT22;11991;57.150;-2.134;2023-06-22T14:29:01;21.10;99.90
23629;DHT22;11991;57.150;-2.134;2023-06-22T14:31:28;21.00;99.90
23629;DHT22;11991;57.150;-2.134;2023-06-22T14:33:56;21.00;99.90
23629;DHT22;11991;57.150;-2.134;2023-06-22T14:36:23;21.00;99.90
23629;DHT22;11991;57.150;-2.134;2023-06-22T14:38:50;20.90;99.90
23629;DHT22;11991;57.150;-2.134;2023-06-22T14:41:17;20.90;99.90
23629;DHT22;11991;57.150;-2.134;2023-06-22T14:43:48;20.80;99.90
23629;DHT22;11991;57.150;-2.134;2023-06-22T14:46:18;20.70;99.90
23629;DHT22;11991;57.150;-2.134;2023-06-22T14:48:46;20.70;99.90
23629;DHT22;11991;57.150;-2.134;2023-06-22T14:51:13;20.70;99.90
23629;DHT22;11991;57.150;-2.134;2023-06-22T14:53:45;20.70;99.90
23629;DHT22;11991;57.150;-2.134;2023-06-22T14:56:13;20.60;99.90
23629;DHT22;11991;57.150;-2.134;2023-06-22T14:58:43;20.60;99.90
23629;DHT22;11991;57.150;-2.134;2023-06-22T15:01:16;20.70;99.90
23629;DHT22;11991;57.150;-2.134;2023-06-22T15:03:44;20.70;99.90
23629;DHT22;11991;57.150;-2.134;2023-06-22T15:06:11;20.60;99.90
23629;DHT22;11991;57.150;-2.134;2023-06-22T15:08:42;20.70;99.90
23629;DHT22;11991;57.150;-2.134;2023-06-22T15:11:10;20.80;99.90
23629;DHT22;11991;57.150;-2.134;2023-06-22T15:13:41;20.80;99.90
23629;DHT22;11991;57.150;-2.134;2023-06-22T15:16:09;20.90;99.90
23629;DHT22;11991;57.150;-2.134;2023-06-22T15:18:36;20.90;99.90
23629;DHT22;11991;57.150;-2.134;2023-06-22T15:21:04;20.90;99.90
23629;DHT22;11991;57.150;-2.134;2023-06-22T15:23:32;21.00;99.90
23629;DHT22;11991;57.150;-2.134;2023-06-22T15:26:02;20.90;99.90
23629;DHT22;11991;57.150;-2.134;2023-06-22T15:28:29;20.90;99.90